Current | Forecast
Updated: 6:10 AM JST on April 27, 2017
Observed at Miyazaki Airport, Japan
Temperature 59°F
Humidity 94%
Dew Point 57°F
Wind NNW at 4 mph
Pressure 29.77 in (Falling)
Conditions Mostly Cloudy
Visibility 5.0 miles
UV 0 out of 16
Clouds (FEW) : 1000 ft
Scattered Clouds (SCT) : 5000 ft
Mostly Cloudy (BKN) : 18000 ft
Yesterday's Maximum 64°F
Yesterday's Minimum 59°F approx.
Yesterday's Heating Degree Days 3 approx.
Sunrise5:33 AM JST
Sunset6:53 PM JST
Moon Rise6:12 AM JST
Moon Set7:44 PM JST
Moon PhaseMoon Phase
New Moon
Raw METARSPECI RJFM 262110Z 34003KT 8000 FEW010 SCT050 BKN180 15/14 Q1008 RMK 1ST010 3SC050 5AC180 A2977


Monday
. High: 74° F.
Tuesday
. High: 82° F.
Wednesday
. High: 73° F.
Thursday
. High: 73° F.
Friday
. High: 65° F.
Saturday
. High: 77° F.
Sunday
. High: 75° F.
Monday
. High: 75° F.

Units: English | Metric

Find the Weather for any City, State or Zipcode, or Country:

U.S. State List | Severe Weather | Tropical Storms | Ski Conditions
United States | Canada | Central America | South America | Asia | Europe | Australia | Africa | Islands

Weather Underground

© Copyright 2017
The Weather Company, LLC